Time;durP1;ratioP1;P1;durP2;ratioP2;P2;SDS_P1;SDS_P2;PMS_P1;PMS_P2;Temp;Humidity;BMP_temperature;BMP_pressure;BME280_temperature;BME280_humidity;BME280_pressure;Samples;Min_cycle;Max_cycle;Signal;HPM_P1;HPM_P2
2022/05/01 00:00:16;;;;;;;3.63;3.33;;;9.10;99.90;;;;;;5025887;28;20483;-53
2022/05/01 00:02:43;;;;;;;4.47;2.90;;;9.20;99.90;;;;;;5027932;28;20516;-52
2022/05/01 00:05:10;;;;;;;11.43;3.20;;;9.10;99.90;;;;;;5032191;28;20516;-53
2022/05/01 00:07:36;;;;;;;4.53;2.93;;;9.10;99.90;;;;;;5030173;28;20575;-53
2022/05/01 00:10:03;;;;;;;5.63;3.40;;;9.00;99.90;;;;;;5022891;28;20509;-54
2022/05/01 00:12:30;;;;;;;4.97;3.30;;;9.00;99.90;;;;;;5030840;28;20486;-53
2022/05/01 00:14:58;;;;;;;3.70;2.87;;;9.00;99.90;;;;;;5031109;28;20463;-54
2022/05/01 00:17:25;;;;;;;10.50;3.23;;;8.90;99.90;;;;;;5028151;28;20478;-53
2022/05/01 00:19:52;;;;;;;3.33;2.80;;;8.80;99.90;;;;;;5029659;28;20584;-53
2022/05/01 00:22:18;;;;;;;3.33;3.00;;;8.70;99.90;;;;;;5029068;28;20972;-52
2022/05/01 00:24:45;;;;;;;3.27;3.00;;;8.60;99.90;;;;;;5017297;28;20877;-52
2022/05/01 00:27:12;;;;;;;3.33;3.03;;;8.60;99.90;;;;;;5031548;28;20470;-53
2022/05/01 00:29:39;;;;;;;6.70;2.77;;;8.60;99.90;;;;;;5031549;28;21032;-54
2022/05/01 00:32:08;;;;;;;6.30;3.00;;;8.60;99.90;;;;;;5029820;28;21075;-53
2022/05/01 00:37:19;;;;;;;6.60;3.67;;;8.50;99.90;;;;;;5029032;28;20508;-52
2022/05/01 00:39:46;;;;;;;4.53;3.53;;;8.40;99.90;;;;;;5029054;28;20478;-52
2022/05/01 00:42:13;;;;;;;12.60;3.73;;;8.40;99.90;;;;;;5031654;28;20459;-51
2022/05/01 00:44:40;;;;;;;4.07;2.93;;;8.30;99.90;;;;;;5030578;28;20459;-53
2022/05/01 00:47:08;;;;;;;6.10;3.50;;;8.20;99.90;;;;;;5031849;28;20469;-52
2022/05/01 00:49:34;;;;;;;4.73;3.20;;;8.20;99.90;;;;;;5029596;28;20508;-53
2022/05/01 00:52:08;;;;;;;3.77;2.90;;;8.20;99.90;;;;;;5030226;28;20458;-53
2022/05/01 00:54:37;;;;;;;3.43;3.13;;;8.10;99.90;;;;;;5018301;28;20884;-53
2022/05/01 00:57:06;;;;;;;4.93;3.10;;;8.00;99.90;;;;;;5036269;28;20458;-53
2022/05/01 00:59:34;;;;;;;5.07;3.10;;;7.80;99.90;;;;;;5028330;28;20556;-52
2022/05/01 01:02:00;;;;;;;5.90;3.47;;;7.80;99.90;;;;;;5030432;28;20972;-52
2022/05/01 01:04:28;;;;;;;5.33;3.13;;;7.70;99.90;;;;;;5032182;28;20471;-53
2022/05/01 01:06:55;;;;;;;4.30;3.10;;;7.80;99.90;;;;;;5031605;28;20463;-52
2022/05/01 01:09:22;;;;;;;9.70;3.80;;;7.70;99.90;;;;;;5026544;28;20943;-53
2022/05/01 01:12:53;;;;;;;3.43;3.03;;;7.70;99.90;;;;;;5029381;28;20490;-52
2022/05/01 01:14:35;;;;;;;5.90;3.40;;;7.70;99.90;;;;;;5035525;28;20484;-52
2022/05/01 01:17:01;;;;;;;5.60;3.10;;;7.60;99.90;;;;;;5029182;28;20458;-53
2022/05/01 01:19:29;;;;;;;3.27;2.80;;;7.50;99.90;;;;;;5033766;28;20471;-52
2022/05/01 01:21:58;;;;;;;4.50;3.10;;;7.50;99.90;;;;;;5026102;28;20466;-52
2022/05/01 01:24:25;;;;;;;6.70;3.10;;;7.50;99.90;;;;;;5029248;28;20458;-53
2022/05/01 01:26:52;;;;;;;4.70;3.20;;;7.50;99.90;;;;;;5030314;28;20486;-52
2022/05/01 01:32:05;;;;;;;2.73;2.57;;;7.50;99.90;;;;;;5030535;28;20517;-54
2022/05/01 01:34:36;;;;;;;5.07;3.07;;;7.50;99.90;;;;;;5029907;28;20893;-53
2022/05/01 01:37:07;;;;;;;11.90;3.73;;;7.50;99.90;;;;;;5031951;28;20469;-52
2022/05/01 01:39:35;;;;;;;6.47;3.67;;;7.50;99.90;;;;;;5028597;28;21010;-53
2022/05/01 01:42:05;;;;;;;5.63;3.10;;;7.50;99.90;;;;;;5029434;28;20824;-52
2022/05/01 01:44:34;;;;;;;8.80;3.40;;;7.60;99.90;;;;;;5031676;28;20524;-53
2022/05/01 01:47:01;;;;;;;5.67;3.07;;;7.60;99.90;;;;;;5026244;28;20815;-54
2022/05/01 01:49:27;;;;;;;4.40;3.63;;;7.60;99.90;;;;;;5023428;28;20491;-52
2022/05/01 01:51:54;;;;;;;6.30;4.60;;;7.60;99.90;;;;;;5025482;28;20498;-54
2022/05/01 01:54:22;;;;;;;6.13;4.20;;;7.60;99.90;;;;;;5028849;28;20461;-54
2022/05/01 01:56:49;;;;;;;6.17;4.00;;;7.60;99.90;;;;;;5028026;28;20483;-53
2022/05/01 01:59:15;;;;;;;4.30;3.90;;;7.60;99.90;;;;;;5028972;28;20514;-52
2022/05/01 02:01:43;;;;;;;7.83;4.77;;;7.50;99.90;;;;;;5020923;28;20467;-53
2022/05/01 02:04:10;;;;;;;6.67;4.60;;;7.40;99.90;;;;;;5030244;28;20461;-53
2022/05/01 02:06:37;;;;;;;6.60;4.57;;;7.50;99.90;;;;;;5029116;28;20550;-54
2022/05/01 02:09:06;;;;;;;9.53;4.53;;;7.40;99.90;;;;;;5029880;28;20899;-52
2022/05/01 02:11:34;;;;;;;6.93;4.30;;;7.40;99.90;;;;;;5031567;28;20508;-53
2022/05/01 02:14:01;;;;;;;4.33;3.93;;;7.40;99.90;;;;;;5036373;28;20502;-54
2022/05/01 02:16:29;;;;;;;5.37;3.47;;;7.40;99.90;;;;;;5029803;28;20992;-52
2022/05/01 02:18:56;;;;;;;5.40;3.40;;;7.30;99.90;;;;;;5035033;28;20540;-55
2022/05/01 02:21:37;;;;;;;4.43;3.20;;;7.40;99.90;;;;;;5038110;28;20520;-54
2022/05/01 02:24:09;;;;;;;6.70;3.37;;;7.30;99.90;;;;;;5021828;28;20459;-52
2022/05/01 02:26:38;;;;;;;7.03;3.70;;;7.20;99.90;;;;;;5025749;28;20506;-54
2022/05/01 02:29:09;;;;;;;3.40;3.10;;;7.30;99.90;;;;;;5029719;28;20486;-54
2022/05/01 02:31:36;;;;;;;6.57;3.50;;;7.20;99.90;;;;;;5033343;28;20460;-54
2022/05/01 02:34:03;;;;;;;18.17;3.67;;;7.20;99.90;;;;;;5031418;28;21032;-53
2022/05/01 02:36:30;;;;;;;3.80;3.40;;;7.20;99.90;;;;;;5029248;28;20485;-54
2022/05/01 02:38:56;;;;;;;5.33;3.27;;;7.20;99.90;;;;;;5036926;28;20486;-54
2022/05/01 02:41:23;;;;;;;6.00;3.40;;;7.20;99.90;;;;;;5030078;28;21140;-54
2022/05/01 02:43:51;;;;;;;4.53;4.13;;;7.20;99.90;;;;;;5037521;28;20483;-53
2022/05/01 02:46:17;;;;;;;4.10;3.70;;;7.20;99.90;;;;;;5036503;28;20486;-54
2022/05/01 02:48:44;;;;;;;7.70;3.50;;;7.10;99.90;;;;;;5033000;28;20944;-53
2022/05/01 02:51:11;;;;;;;3.30;3.00;;;7.10;99.90;;;;;;5031730;28;20536;-51
2022/05/01 02:53:38;;;;;;;4.73;3.50;;;7.10;99.90;;;;;;5031361;28;20516;-52
2022/05/01 02:56:05;;;;;;;5.90;3.30;;;7.00;99.90;;;;;;5028414;28;20467;-54
2022/05/01 02:58:32;;;;;;;6.17;3.90;;;6.90;99.90;;;;;;5031046;28;20564;-54
2022/05/01 03:01:00;;;;;;;5.23;3.93;;;6.90;99.90;;;;;;5028232;28;20571;-52
2022/05/01 03:03:27;;;;;;;6.93;3.30;;;6.80;99.90;;;;;;5030218;28;20461;-53
2022/05/01 03:05:56;;;;;;;7.30;3.90;;;6.80;99.90;;;;;;5019725;28;20467;-51
2022/05/01 03:08:23;;;;;;;8.17;3.40;;;6.80;99.90;;;;;;5034784;28;20489;-52
2022/05/01 03:10:49;;;;;;;6.43;4.27;;;6.80;99.90;;;;;;5028220;28;20486;-52
2022/05/01 03:13:17;;;;;;;5.60;4.30;;;6.70;99.90;;;;;;5032718;28;20998;-54
2022/05/01 03:15:44;;;;;;;4.93;3.87;;;6.70;99.90;;;;;;5033745;28;20529;-53
2022/05/01 03:23:41;;;;;;;6.33;4.60;;;6.70;99.90;;;;;;5034800;28;20504;-53
2022/05/01 03:26:08;;;;;;;5.10;4.33;;;6.70;99.90;;;;;;5033508;28;20512;-53
2022/05/01 03:28:34;;;;;;;4.60;4.00;;;6.70;99.90;;;;;;5034693;28;20477;-54
2022/05/01 03:31:01;;;;;;;4.90;4.43;;;6.70;99.90;;;;;;5027089;28;20505;-53
2022/05/01 03:33:31;;;;;;;6.83;3.90;;;6.70;99.90;;;;;;5024660;28;20501;-53
2022/05/01 03:35:57;;;;;;;6.50;4.13;;;6.70;99.90;;;;;;5032481;28;20502;-53
2022/05/01 03:38:24;;;;;;;5.40;4.90;;;6.70;99.90;;;;;;5025590;28;20474;-53
2022/05/01 03:40:51;;;;;;;8.70;5.57;;;6.70;99.90;;;;;;5028289;28;20950;-52
2022/05/01 03:43:17;;;;;;;8.97;5.70;;;6.80;99.90;;;;;;5031385;28;20824;-53
2022/05/01 03:45:44;;;;;;;7.80;5.30;;;6.80;99.90;;;;;;5024889;28;20852;-54
2022/05/01 03:48:12;;;;;;;6.20;4.63;;;6.90;99.90;;;;;;5031213;28;20588;-52
2022/05/01 03:50:41;;;;;;;5.13;4.67;;;6.90;99.90;;;;;;5027718;28;20960;-54
2022/05/01 03:53:07;;;;;;;5.90;5.30;;;7.00;99.90;;;;;;5035724;28;20463;-53
2022/05/01 03:55:36;;;;;;;21.20;5.77;;;7.00;99.90;;;;;;5032248;28;20455;-53
2022/05/01 03:58:03;;;;;;;9.10;5.50;;;7.00;99.90;;;;;;5029799;28;20537;-54
2022/05/01 04:00:31;;;;;;;4.63;3.97;;;7.00;99.90;;;;;;5031707;28;20506;-53
2022/05/01 04:02:57;;;;;;;8.37;3.50;;;7.10;99.90;;;;;;5034275;28;20490;-54
2022/05/01 04:05:24;;;;;;;3.47;3.03;;;7.00;99.90;;;;;;5032400;28;20502;-54
2022/05/01 04:07:52;;;;;;;4.00;3.30;;;6.90;99.90;;;;;;5031834;28;20867;-55
2022/05/01 04:10:19;;;;;;;4.67;3.40;;;6.90;99.90;;;;;;5023668;28;20952;-54
2022/05/01 04:12:46;;;;;;;6.13;3.23;;;6.90;99.90;;;;;;5024372;28;20545;-54
2022/05/01 04:15:14;;;;;;;8.13;3.97;;;6.80;99.90;;;;;;5030999;28;20918;-54
2022/05/01 04:17:42;;;;;;;6.37;5.07;;;6.80;99.90;;;;;;5030282;28;20505;-53
2022/05/01 04:20:10;;;;;;;10.37;6.77;;;6.80;99.90;;;;;;5029841;28;20458;-52
2022/05/01 04:22:38;;;;;;;20.23;8.47;;;6.80;99.90;;;;;;5037541;28;20550;-53
2022/05/01 04:25:15;;;;;;;10.03;7.23;;;6.80;99.90;;;;;;5030927;28;20502;-52
2022/05/01 04:27:42;;;;;;;10.00;7.43;;;6.80;99.90;;;;;;5034288;28;20481;-54
2022/05/01 04:30:10;;;;;;;9.73;7.23;;;6.90;99.90;;;;;;5030186;28;20497;-53
2022/05/01 04:32:50;;;;;;;11.17;7.40;;;6.90;99.90;;;;;;5035885;28;21016;-53
2022/05/01 04:35:28;;;;;;;6.13;5.57;;;6.90;99.90;;;;;;5031048;28;20458;-53
2022/05/01 04:37:59;;;;;;;7.47;4.97;;;6.90;99.90;;;;;;5022920;28;20565;-52
2022/05/01 04:40:28;;;;;;;5.30;3.83;;;7.00;99.90;;;;;;5026284;28;20482;-54
2022/05/01 04:43:01;;;;;;;7.27;5.13;;;7.00;99.90;;;;;;5034663;28;20463;-52
2022/05/01 04:45:28;;;;;;;4.93;3.70;;;7.00;99.90;;;;;;5030510;28;20971;-54
2022/05/01 04:47:54;;;;;;;6.33;4.33;;;7.00;99.90;;;;;;5028411;28;20521;-53
2022/05/01 04:50:21;;;;;;;6.17;4.03;;;7.10;99.90;;;;;;5028428;28;20976;-54
2022/05/01 04:52:48;;;;;;;4.20;3.83;;;7.10;99.90;;;;;;5025105;28;20490;-53
2022/05/01 04:55:14;;;;;;;6.27;3.43;;;7.10;99.90;;;;;;5026296;28;20501;-53
2022/05/01 04:57:42;;;;;;;3.40;3.10;;;7.20;99.90;;;;;;5030429;28;20510;-53
2022/05/01 05:00:10;;;;;;;3.23;3.00;;;7.30;99.90;;;;;;5026313;28;20945;-53
2022/05/01 05:02:38;;;;;;;4.60;2.97;;;7.30;99.90;;;;;;5030883;28;20700;-54
2022/05/01 05:05:07;;;;;;;3.60;3.30;;;7.40;99.90;;;;;;5025357;28;21063;-54
2022/05/01 05:07:34;;;;;;;3.27;3.03;;;7.50;99.90;;;;;;5032853;23;20560;-52
2022/05/01 05:09:59;;;;;;;3.57;3.27;;;7.60;99.90;;;;;;5007755;28;20491;-51
2022/05/01 05:12:27;;;;;;;3.47;3.17;;;7.70;99.90;;;;;;5000566;28;20479;-52
2022/05/01 05:14:58;;;;;;;4.40;3.50;;;7.80;99.90;;;;;;5004993;28;20212;-52
2022/05/01 05:17:26;;;;;;;3.70;3.40;;;8.00;99.90;;;;;;5012620;28;20582;-51
2022/05/01 05:19:52;;;;;;;4.50;2.97;;;8.20;99.90;;;;;;5027499;28;20509;-51
2022/05/01 05:22:19;;;;;;;3.50;3.27;;;8.40;99.90;;;;;;5029711;28;20521;-51
2022/05/01 05:24:45;;;;;;;3.33;3.10;;;8.60;99.90;;;;;;5028340;28;20549;-51
2022/05/01 05:27:12;;;;;;;4.50;3.33;;;8.80;99.90;;;;;;5029184;28;20505;-52
2022/05/01 05:29:39;;;;;;;5.30;3.27;;;8.90;99.90;;;;;;5029021;28;20498;-52
2022/05/01 05:32:08;;;;;;;7.23;3.10;;;9.10;99.90;;;;;;5027794;28;20513;-51
2022/05/01 05:34:35;;;;;;;4.97;3.40;;;9.20;99.90;;;;;;5025822;28;20498;-51
2022/05/01 05:37:02;;;;;;;3.20;3.00;;;9.30;23.00;;;;;;5021339;28;20451;-51
2022/05/01 05:39:28;;;;;;;9.23;3.90;;;9.40;26.20;;;;;;5029596;28;20499;-52
2022/05/01 05:41:55;;;;;;;3.80;2.93;;;9.50;33.00;;;;;;5027644;28;20995;-51
2022/05/01 05:44:21;;;;;;;2.93;2.70;;;9.60;36.90;;;;;;5029605;28;20570;-51
2022/05/01 05:46:48;;;;;;;2.80;2.70;;;9.60;41.30;;;;;;5023163;28;20459;-52
2022/05/01 05:49:16;;;;;;;4.23;3.03;;;9.70;50.20;;;;;;5028413;28;21027;-51
2022/05/01 05:51:43;;;;;;;2.90;2.70;;;9.80;48.20;;;;;;5022890;28;20494;-51
2022/05/01 05:54:09;;;;;;;3.10;2.90;;;9.90;52.90;;;;;;5030066;28;20498;-52
2022/05/01 05:56:37;;;;;;;3.00;2.70;;;9.90;55.40;;;;;;5023618;28;20494;-52
2022/05/01 05:59:03;;;;;;;3.63;3.03;;;10.00;56.00;;;;;;5030056;28;20502;-52
2022/05/01 06:01:30;;;;;;;3.70;2.50;;;10.00;59.60;;;;;;5029756;28;20478;-52
2022/05/01 06:03:57;;;;;;;7.43;4.30;;;10.10;65.30;;;;;;5029769;28;20572;-52
2022/05/01 06:06:25;;;;;;;4.00;3.03;;;10.20;65.90;;;;;;5026324;28;20491;-51
2022/05/01 06:08:51;;;;;;;3.20;2.93;;;10.30;76.50;;;;;;5033167;28;20494;-51
2022/05/01 06:11:18;;;;;;;4.30;2.80;;;10.40;83.90;;;;;;5029700;28;20489;-52
2022/05/01 06:13:45;;;;;;;2.37;2.27;;;10.50;82.90;;;;;;5029850;28;21003;-52
2022/05/01 06:16:11;;;;;;;5.07;2.90;;;10.50;83.70;;;;;;5024288;28;20471;-51
2022/05/01 06:18:38;;;;;;;2.30;2.20;;;10.60;85.70;;;;;;5026318;28;20560;-51
2022/05/01 06:21:05;;;;;;;2.47;2.27;;;10.70;93.20;;;;;;5022475;28;20524;-52
2022/05/01 06:23:34;;;;;;;3.60;2.33;;;10.80;99.90;;;;;;5024852;28;20524;-52
2022/05/01 06:26:03;;;;;;;3.60;2.40;;;10.90;99.90;;;;;;5032549;28;20450;-51
2022/05/01 06:28:30;;;;;;;2.33;2.00;;;11.00;99.90;;;;;;5031916;28;20478;-52
2022/05/01 06:30:58;;;;;;;2.30;2.20;;;11.30;99.90;;;;;;5030619;28;20868;-51
2022/05/01 06:33:24;;;;;;;2.60;1.97;;;11.60;99.90;;;;;;5024643;28;20505;-52
2022/05/01 06:35:54;;;;;;;4.77;1.53;;;11.90;99.90;;;;;;5029089;28;20877;-52
2022/05/01 06:38:21;;;;;;;2.10;2.00;;;12.10;99.90;;;;;;5027547;28;20478;-52
2022/05/01 06:40:49;;;;;;;2.30;1.73;;;12.60;99.90;;;;;;5031603;28;20442;-51
2022/05/01 06:43:18;;;;;;;2.07;1.57;;;12.80;99.90;;;;;;5026487;28;20539;-52
2022/05/01 06:45:45;;;;;;;6.60;2.30;;;13.00;99.90;;;;;;5029246;28;20475;-53
2022/05/01 06:48:12;;;;;;;4.80;2.70;;;13.00;99.90;;;;;;5024216;28;20486;-53
2022/05/01 06:50:39;;;;;;;5.37;2.93;;;13.20;99.90;;;;;;5021738;28;20529;-52
2022/05/01 06:53:07;;;;;;;3.67;2.20;;;13.40;99.90;;;;;;5027069;28;20495;-51
2022/05/01 06:55:34;;;;;;;5.40;3.13;;;13.60;99.90;;;;;;5023150;28;20467;-52
2022/05/01 06:58:02;;;;;;;2.67;2.07;;;13.50;99.90;;;;;;5032945;28;20540;-52
2022/05/01 07:00:28;;;;;;;4.00;2.40;;;13.40;99.90;;;;;;5024983;28;20471;-52
2022/05/01 07:02:55;;;;;;;2.97;2.20;;;13.70;99.90;;;;;;5024479;28;20543;-51
2022/05/01 07:05:24;;;;;;;4.87;2.67;;;13.70;99.90;;;;;;5027291;28;20490;-51
2022/05/01 07:07:51;;;;;;;2.80;2.37;;;13.90;99.90;;;;;;5028362;28;20474;-52
2022/05/01 07:10:19;;;;;;;5.50;2.87;;;14.20;99.90;;;;;;5024826;28;20448;-51
2022/05/01 07:12:46;;;;;;;3.07;2.43;;;13.70;99.90;;;;;;5027692;28;20517;-52
2022/05/01 07:15:15;;;;;;;3.20;2.20;;;14.00;99.90;;;;;;5031154;28;20540;-52
2022/05/01 07:17:42;;;;;;;4.40;2.30;;;13.70;99.90;;;;;;5020823;28;20510;-52
2022/05/01 07:20:10;;;;;;;4.10;2.70;;;13.80;99.90;;;;;;5028579;28;20446;-53
2022/05/01 07:22:37;;;;;;;8.30;2.60;;;13.70;99.90;;;;;;5030007;28;20532;-51
2022/05/01 07:25:04;;;;;;;4.10;2.40;;;14.00;99.90;;;;;;5029223;28;20448;-52
2022/05/01 07:27:31;;;;;;;2.80;2.10;;;14.20;99.90;;;;;;5024939;28;20507;-51
2022/05/01 07:29:57;;;;;;;3.43;2.33;;;14.30;99.90;;;;;;5023071;28;20525;-52
2022/05/01 07:32:25;;;;;;;1.90;1.73;;;14.50;99.90;;;;;;5028515;28;20479;-51
2022/05/01 07:34:52;;;;;;;2.70;2.00;;;14.30;99.90;;;;;;5026963;28;20496;-51
2022/05/01 07:37:20;;;;;;;1.97;1.83;;;14.30;99.90;;;;;;5025970;28;20486;-52
2022/05/01 07:39:47;;;;;;;1.70;1.53;;;14.30;99.90;;;;;;5026782;28;20459;-51
2022/05/01 07:42:13;;;;;;;2.47;2.13;;;14.40;99.90;;;;;;5022208;28;20537;-52
2022/05/01 07:44:40;;;;;;;2.07;1.50;;;14.30;99.90;;;;;;5029578;28;20470;-52
2022/05/01 07:47:07;;;;;;;1.73;1.63;;;14.20;99.90;;;;;;5024460;28;20474;-53
2022/05/01 07:49:35;;;;;;;5.70;1.97;;;14.30;99.90;;;;;;5026535;28;20491;-51
2022/05/01 07:52:01;;;;;;;2.27;1.37;;;14.10;99.90;;;;;;5020229;28;21043;-51
2022/05/01 07:54:28;;;;;;;2.90;1.80;;;14.10;99.90;;;;;;5021079;28;20540;-52
2022/05/01 07:56:54;;;;;;;2.30;1.73;;;14.20;99.90;;;;;;5020410;28;20516;-52
2022/05/01 07:59:21;;;;;;;3.50;1.80;;;14.10;99.90;;;;;;5029048;28;20510;-52
2022/05/01 08:01:48;;;;;;;1.67;1.57;;;14.10;99.90;;;;;;5020720;28;21031;-52
2022/05/01 08:04:29;;;;;;;4.57;1.77;;;14.10;99.90;;;;;;5030873;28;20462;-53
2022/05/01 08:07:00;;;;;;;2.40;1.90;;;14.00;99.90;;;;;;5027989;28;20486;-53
2022/05/01 08:09:27;;;;;;;2.83;1.60;;;14.00;99.90;;;;;;5027818;28;20486;-52
2022/05/01 08:11:54;;;;;;;3.80;1.80;;;13.90;99.90;;;;;;5030350;28;20451;-52
2022/05/01 08:14:21;;;;;;;2.67;1.97;;;13.80;99.90;;;;;;5022501;28;20462;-52
2022/05/01 08:16:48;;;;;;;2.20;1.83;;;13.80;99.90;;;;;;5025204;28;20561;-52
2022/05/01 08:22:01;;;;;;;1.63;1.50;;;13.80;99.90;;;;;;5028158;28;20497;-53
2022/05/01 08:24:27;;;;;;;2.20;1.33;;;13.80;99.90;;;;;;5020487;28;20458;-52
2022/05/01 08:26:54;;;;;;;2.93;2.03;;;13.80;99.90;;;;;;5022268;28;20864;-52
2022/05/01 08:29:20;;;;;;;3.83;1.60;;;13.90;99.90;;;;;;5025322;28;20509;-52
2022/05/01 08:31:47;;;;;;;16.03;2.50;;;13.90;99.90;;;;;;5029099;28;21042;-52
2022/05/01 08:34:14;;;;;;;2.53;1.20;;;13.80;99.90;;;;;;5026700;28;20494;-51
2022/05/01 08:36:41;;;;;;;1.80;1.53;;;13.70;99.90;;;;;;5032634;28;20462;-53
2022/05/01 08:39:09;;;;;;;3.03;1.60;;;13.60;99.90;;;;;;5030437;28;21003;-52
2022/05/01 08:41:37;;;;;;;1.60;1.50;;;13.60;99.90;;;;;;5023581;28;20474;-52
2022/05/01 08:44:05;;;;;;;4.30;2.17;;;13.60;99.90;;;;;;5025816;28;20463;-52
2022/05/01 08:46:56;;;;;;;1.83;1.60;;;13.60;99.90;;;;;;5025231;28;20812;-52
2022/05/01 08:49:23;;;;;;;1.53;1.40;;;13.60;99.90;;;;;;5025358;28;20483;-52
2022/05/01 08:51:52;;;;;;;3.57;1.57;;;13.60;99.90;;;;;;5023773;28;20463;-52
2022/05/01 08:54:21;;;;;;;8.57;1.43;;;13.70;99.90;;;;;;5030292;28;20550;-52
2022/05/01 08:56:48;;;;;;;2.60;1.47;;;13.60;99.90;;;;;;5016243;28;20499;-52
2022/05/01 08:59:16;;;;;;;1.53;1.43;;;13.70;99.90;;;;;;5021582;28;20506;-52
2022/05/01 09:01:44;;;;;;;1.80;1.70;;;13.70;99.90;;;;;;5024043;28;20486;-52
2022/05/01 09:04:13;;;;;;;1.90;1.80;;;13.80;99.90;;;;;;5028634;28;20482;-52
2022/05/01 09:06:41;;;;;;;3.23;1.43;;;13.90;99.90;;;;;;5041910;28;20460;-53
2022/05/01 09:09:08;;;;;;;1.60;1.50;;;13.90;99.90;;;;;;5020026;28;20514;-52
2022/05/01 09:14:22;;;;;;;1.70;1.60;;;14.20;99.90;;;;;;5024838;28;20468;-53
2022/05/01 09:17:14;;;;;;;1.70;1.60;;;14.30;99.90;;;;;;5026201;28;20466;-52
2022/05/01 09:19:41;;;;;;;1.90;1.80;;;14.30;99.90;;;;;;5023647;28;20458;-52
2022/05/01 09:22:07;;;;;;;2.03;1.93;;;14.30;99.90;;;;;;5022914;28;20818;-53
2022/05/01 09:24:34;;;;;;;11.20;2.17;;;14.30;99.90;;;;;;5023900;28;20544;-53
2022/05/01 09:27:02;;;;;;;5.43;2.40;;;14.50;99.90;;;;;;5024725;28;21435;-54
2022/05/01 09:29:34;;;;;;;2.20;1.83;;;14.50;99.90;;;;;;5023495;28;20549;-53
2022/05/01 09:32:03;;;;;;;2.30;1.90;;;14.50;99.90;;;;;;5012022;28;20509;-53
2022/05/01 09:34:32;;;;;;;3.43;2.20;;;14.30;99.90;;;;;;5012140;28;20466;-53
2022/05/01 09:37:00;;;;;;;3.63;2.20;;;14.40;99.90;;;;;;5007618;28;20528;-52
2022/05/01 09:39:28;;;;;;;5.07;1.97;;;14.60;99.90;;;;;;5008028;28;20474;-51
2022/05/01 09:41:56;;;;;;;7.77;1.93;;;14.60;99.90;;;;;;5010146;28;22075;-51
2022/05/01 09:44:24;;;;;;;4.00;2.97;;;14.80;99.90;;;;;;5010918;28;20465;-52
2022/05/01 09:46:52;;;;;;;1.90;1.80;;;15.00;99.90;;;;;;5011405;28;20585;-53
2022/05/01 09:49:20;;;;;;;2.80;1.63;;;15.00;99.90;;;;;;5008637;28;20513;-52
2022/05/01 09:51:54;;;;;;;1.93;1.80;;;15.10;99.90;;;;;;5021650;28;20838;-53
2022/05/01 09:54:22;;;;;;;3.80;2.10;;;15.20;99.90;;;;;;5020981;28;21347;-52
2022/05/01 09:56:51;;;;;;;2.97;1.60;;;15.30;99.90;;;;;;5019649;28;20549;-52
2022/05/01 09:59:19;;;;;;;9.20;1.60;;;15.30;99.90;;;;;;5026415;28;20983;-52
2022/05/01 10:02:00;;;;;;;11.57;2.20;;;15.20;99.90;;;;;;5017177;28;20498;-52
2022/05/01 10:04:27;;;;;;;3.43;2.10;;;15.10;99.90;;;;;;5020002;28;20459;-53
2022/05/01 10:06:54;;;;;;;2.30;1.93;;;14.90;99.90;;;;;;5017913;28;20937;-52
2022/05/01 10:09:23;;;;;;;2.70;2.00;;;15.00;99.90;;;;;;5016176;28;20530;-52
2022/05/01 10:11:53;;;;;;;1.63;1.53;;;15.10;99.90;;;;;;5017585;28;21039;-52
2022/05/01 10:14:21;;;;;;;1.93;1.80;;;15.10;99.90;;;;;;5017785;28;20467;-52
2022/05/01 10:16:48;;;;;;;4.43;2.07;;;15.20;99.90;;;;;;5025134;28;20817;-52
2022/05/01 10:19:17;;;;;;;4.83;2.90;;;14.90;99.90;;;;;;5027149;28;20561;-52
2022/05/01 10:21:47;;;;;;;5.17;1.80;;;14.80;99.90;;;;;;5018137;28;20461;-52
2022/05/01 10:24:14;;;;;;;2.00;1.80;;;14.90;99.90;;;;;;5020232;28;20451;-53
2022/05/01 10:26:46;;;;;;;7.43;2.33;;;15.00;99.90;;;;;;5030550;28;20458;-52
2022/05/01 10:29:35;;;;;;;10.33;2.03;;;15.00;99.90;;;;;;5019917;28;20503;-53
2022/05/01 10:32:21;;;;;;;5.23;2.60;;;15.10;99.90;;;;;;5017629;28;20545;-52
2022/05/01 10:35:18;;;;;;;7.00;2.53;;;15.20;99.90;;;;;;5022340;28;20481;-52
2022/05/01 10:38:03;;;;;;;2.73;2.33;;;15.40;99.90;;;;;;5023745;28;21046;-53
2022/05/01 10:40:32;;;;;;;5.57;2.13;;;15.30;99.90;;;;;;5030175;28;20490;-53
2022/05/01 10:43:02;;;;;;;3.30;2.27;;;15.40;99.90;;;;;;5034326;28;20478;-53
2022/05/01 10:45:44;;;;;;;2.33;2.13;;;15.60;99.90;;;;;;5030695;28;20471;-52
2022/05/01 10:48:15;;;;;;;2.60;2.30;;;15.70;99.90;;;;;;5027895;28;20474;-52
2022/05/01 10:50:44;;;;;;;2.27;2.17;;;15.60;99.90;;;;;;5020557;28;20550;-52
2022/05/01 10:53:13;;;;;;;7.13;2.10;;;15.50;99.90;;;;;;5026036;28;20447;-51
2022/05/01 10:55:44;;;;;;;7.00;2.33;;;15.50;99.90;;;;;;5025541;28;20462;-52
2022/05/01 10:58:21;;;;;;;2.57;2.40;;;15.40;99.90;;;;;;5029426;28;20509;-52
2022/05/01 11:00:49;;;;;;;2.97;2.17;;;15.60;99.90;;;;;;5032615;28;20492;-52
2022/05/01 11:03:26;;;;;;;4.00;2.40;;;15.60;99.90;;;;;;5029848;28;20510;-52
2022/05/01 11:05:57;;;;;;;12.40;3.60;;;15.60;99.90;;;;;;5023777;28;20469;-52
2022/05/01 11:08:27;;;;;;;2.53;2.43;;;15.40;99.90;;;;;;5031299;28;21091;-50
2022/05/01 11:10:55;;;;;;;4.10;2.00;;;15.30;99.90;;;;;;5034400;28;20477;-50
2022/05/01 11:13:25;;;;;;;2.30;2.13;;;15.20;99.90;;;;;;5033228;28;20454;-51
2022/05/01 11:15:52;;;;;;;6.63;2.10;;;15.10;99.90;;;;;;5029745;28;20495;-49
2022/05/01 11:18:28;;;;;;;2.17;2.07;;;15.00;99.90;;;;;;5024680;28;20482;-50
2022/05/01 11:20:56;;;;;;;2.60;2.23;;;14.90;99.90;;;;;;5027520;28;20539;-50
2022/05/01 11:23:35;;;;;;;3.13;2.07;;;14.90;99.90;;;;;;5027553;28;20668;-50
2022/05/01 11:26:17;;;;;;;2.43;2.07;;;14.80;99.90;;;;;;5023950;28;20885;-49
2022/05/01 11:28:46;;;;;;;4.07;2.10;;;14.60;99.90;;;;;;5030302;28;20852;-49
2022/05/01 11:31:44;;;;;;;2.80;2.20;;;14.60;99.90;;;;;;5031723;28;20486;-50
2022/05/01 11:34:33;;;;;;;2.40;2.00;;;14.50;99.90;;;;;;5024993;28;21023;-50
2022/05/01 11:37:05;;;;;;;4.20;2.50;;;14.40;99.90;;;;;;5027718;28;20467;-50
2022/05/01 11:40:15;;;;;;;5.60;2.27;;;14.20;99.90;;;;;;5027449;28;20539;-50
2022/05/01 11:42:42;;;;;;;8.10;2.63;;;14.20;99.90;;;;;;5020896;28;20996;-49
2022/05/01 11:45:11;;;;;;;2.97;1.70;;;14.10;99.90;;;;;;5022254;28;20458;-49
2022/05/01 11:47:38;;;;;;;4.00;2.53;;;14.10;99.90;;;;;;5025907;28;20582;-50
2022/05/01 11:50:06;;;;;;;4.33;2.23;;;14.10;99.90;;;;;;5017251;28;20482;-50
2022/05/01 11:52:37;;;;;;;2.37;1.70;;;14.10;99.90;;;;;;5014644;28;20463;-50
2022/05/01 11:55:08;;;;;;;3.80;2.03;;;14.00;99.90;;;;;;5024189;28;20543;-50
2022/05/01 12:03:07;;;;;;;1.93;1.60;;;13.80;99.90;;;;;;5021745;28;20534;-50
2022/05/01 12:05:43;;;;;;;1.57;1.47;;;13.80;99.90;;;;;;5021222;28;20467;-49
2022/05/01 12:08:11;;;;;;;2.10;1.73;;;13.70;99.90;;;;;;5024235;28;20498;-50
2022/05/01 12:10:41;;;;;;;2.27;1.73;;;13.60;99.90;;;;;;5024137;28;20494;-49
2022/05/01 12:13:19;;;;;;;2.97;2.00;;;13.60;99.90;;;;;;5019768;28;20455;-50
2022/05/01 12:15:46;;;;;;;1.80;1.67;;;13.50;99.90;;;;;;5029143;28;20521;-50
2022/05/01 12:18:12;;;;;;;1.50;1.40;;;13.60;99.90;;;;;;5030212;28;20858;-50
2022/05/01 12:20:39;;;;;;;3.10;1.83;;;13.60;99.90;;;;;;5024649;28;20619;-50
2022/05/01 12:23:15;;;;;;;2.87;1.63;;;13.70;99.90;;;;;;5033116;28;20564;-50
2022/05/01 12:25:42;;;;;;;1.60;1.40;;;13.70;99.90;;;;;;5020618;28;20466;-51
2022/05/01 12:28:10;;;;;;;4.73;1.80;;;13.80;99.90;;;;;;5020025;28;20517;-50
2022/05/01 12:30:37;;;;;;;5.07;3.07;;;13.70;99.90;;;;;;5026419;28;20450;-51
2022/05/01 12:33:04;;;;;;;6.03;1.80;;;13.70;99.90;;;;;;5019552;28;20518;-50
2022/05/01 12:35:52;;;;;;;13.93;2.90;;;13.70;99.90;;;;;;5028595;28;20459;-50
2022/05/01 12:38:20;;;;;;;3.00;1.97;;;13.80;99.90;;;;;;5027462;28;20829;-51
2022/05/01 12:46:24;;;;;;;3.37;2.17;;;13.80;99.90;;;;;;5024783;28;20503;-50
2022/05/01 12:48:52;;;;;;;3.20;2.90;;;13.70;99.90;;;;;;5023884;28;20491;-50
2022/05/01 12:51:18;;;;;;;4.17;3.07;;;13.80;99.90;;;;;;5023212;28;20971;-51
2022/05/01 12:53:46;;;;;;;4.27;2.07;;;13.80;99.90;;;;;;5023816;28;20629;-51
2022/05/01 12:56:18;;;;;;;5.63;2.27;;;13.80;99.90;;;;;;5023386;28;21014;-51
2022/05/01 12:58:45;;;;;;;16.17;3.73;;;13.90;99.90;;;;;;5029919;28;20487;-51
2022/05/01 13:01:22;;;;;;;3.80;3.43;;;14.00;99.90;;;;;;5033116;28;20460;-50
2022/05/01 13:03:49;;;;;;;57.77;36.00;;;14.10;99.90;;;;;;5024556;28;20533;-50
2022/05/01 13:06:17;;;;;;;8.33;4.93;;;14.20;99.90;;;;;;5021715;28;20517;-49
2022/05/01 13:08:47;;;;;;;3.30;2.23;;;14.30;99.90;;;;;;5020907;28;20514;-51
2022/05/01 13:11:21;;;;;;;2.13;2.03;;;14.40;99.90;;;;;;5024284;28;20509;-49
2022/05/01 13:13:53;;;;;;;3.17;2.63;;;14.50;99.90;;;;;;5021048;28;20458;-49
2022/05/01 13:16:22;;;;;;;7.17;3.30;;;14.80;99.90;;;;;;5018443;28;20519;-49
2022/05/01 13:18:51;;;;;;;3.27;2.03;;;15.00;99.90;;;;;;5026617;28;21007;-49
2022/05/01 13:21:18;;;;;;;3.67;2.30;;;15.10;99.90;;;;;;5028050;28;21735;-50
2022/05/01 13:23:46;;;;;;;6.33;4.00;;;15.20;99.90;;;;;;5029141;28;20478;-50
2022/05/01 13:26:12;;;;;;;5.33;4.77;;;15.40;99.90;;;;;;5027736;28;20462;-51